createdAt,value
2019-04-30T00:02:15.887Z,92.88
2019-04-30T00:04:49.309Z,87.22
2019-04-30T00:07:21.248Z,90.67
2019-04-30T00:09:53.930Z,90.12
2019-04-30T00:12:22.163Z,79.97
2019-04-30T00:14:54.926Z,102.87
2019-04-30T00:17:28.186Z,88.33
2019-04-30T00:19:59.894Z,115.77
2019-04-30T00:22:34.199Z,113.95
2019-04-30T00:25:02.937Z,104.03
2019-04-30T00:27:31.679Z,108.27
2019-04-30T00:30:04.849Z,92.97
2019-04-30T00:32:39.300Z,100.58
2019-04-30T00:35:07.159Z,94.70
2019-04-30T00:37:35.528Z,105.43
2019-04-30T00:40:05.988Z,102.30
2019-04-30T00:42:35.778Z,101.62
2019-04-30T00:45:12.130Z,106.05
2019-04-30T00:47:44.510Z,102.75
2019-04-30T00:50:15.001Z,94.58
2019-04-30T00:52:45.759Z,102.38
2019-04-30T00:55:15.017Z,101.05
2019-04-30T00:57:47.596Z,103.38
2019-04-30T01:00:19.735Z,99.52
2019-04-30T01:02:53.122Z,89.92
2019-04-30T01:05:25.480Z,106.35
2019-04-30T01:07:55.070Z,100.72
2019-04-30T01:10:27.178Z,101.72
2019-04-30T01:13:01.843Z,91.35
2019-04-30T01:15:26.558Z,100.05
2019-04-30T01:17:55.513Z,86.63
2019-04-30T01:20:31.104Z,87.78
2019-04-30T01:22:55.021Z,83.25
2019-04-30T01:25:28.753Z,106.85
2019-04-30T01:27:58.557Z,106.25
2019-04-30T01:30:28.480Z,111.40
2019-04-30T01:32:58.818Z,107.97
2019-04-30T01:35:31.290Z,102.12
2019-04-30T01:37:59.619Z,96.12
2019-04-30T01:40:29.143Z,93.00
2019-04-30T01:42:59.409Z,108.75
2019-04-30T01:45:31.626Z,98.70
2019-04-30T01:48:08.466Z,104.23
2019-04-30T01:50:29.584Z,117.47
2019-04-30T01:52:59.127Z,109.52
2019-04-30T01:55:45.407Z,113.88
2019-04-30T01:58:21.052Z,110.45
2019-04-30T02:00:53.105Z,109.07
2019-04-30T02:03:21.852Z,104.20
2019-04-30T02:05:50.777Z,94.67
2019-04-30T02:08:19.773Z,95.85
2019-04-30T02:10:51.360Z,112.57
2019-04-30T02:13:19.980Z,112.80
2019-04-30T02:15:51.557Z,117.97
2019-04-30T02:18:20.460Z,117.25
2019-04-30T02:20:50.646Z,117.80
2019-04-30T02:23:19.769Z,102.42
2019-04-30T02:25:48.966Z,117.15
2019-04-30T02:28:19.535Z,113.35
2019-04-30T02:30:50.560Z,109.37
2019-04-30T02:33:19.942Z,116.93
2019-04-30T02:36:03.831Z,114.70
2019-04-30T02:38:34.360Z,103.20
2019-04-30T02:41:04.244Z,95.03
2019-04-30T02:43:33.357Z,107.27
2019-04-30T02:46:02.538Z,131.65
2019-04-30T02:48:33.162Z,129.60
2019-04-30T02:51:03.762Z,141.82
2019-04-30T02:54:29.480Z,122.35
2019-04-30T02:57:11.786Z,117.35
2019-04-30T03:00:00.001Z,118.60
2019-04-30T03:02:33.075Z,131.43
2019-04-30T03:05:01.842Z,130.85
2019-04-30T03:07:32.608Z,115.40
2019-04-30T03:10:01.588Z,121.22
2019-04-30T03:12:33.617Z,125.18
2019-04-30T03:15:03.296Z,122.45
2019-04-30T03:17:47.346Z,123.92
2019-04-30T03:20:46.690Z,125.30
2019-04-30T03:23:15.632Z,117.28
2019-04-30T03:25:50.083Z,130.52
2019-04-30T03:28:20.144Z,120.13
2019-04-30T03:30:51.887Z,120.33
2019-04-30T03:33:22.904Z,127.10
2019-04-30T03:35:54.826Z,127.92
2019-04-30T03:38:25.356Z,129.97
2019-04-30T03:40:56.032Z,117.30
2019-04-30T03:43:24.637Z,115.05
2019-04-30T03:45:53.584Z,108.07
2019-04-30T03:48:22.136Z,105.50
2019-04-30T03:50:56.566Z,106.47
2019-04-30T03:53:21.374Z,111.00
2019-04-30T03:55:51.371Z,108.85
2019-04-30T03:58:21.462Z,117.22
2019-04-30T04:01:10.151Z,115.82
2019-04-30T04:04:00.370Z,113.12
2019-04-30T04:06:34.942Z,110.57
2019-04-30T04:09:22.027Z,112.57
2019-04-30T04:11:51.803Z,119.08
2019-04-30T04:14:25.927Z,126.95
2019-04-30T04:16:59.967Z,119.47
2019-04-30T04:19:29.212Z,118.57
2019-04-30T04:22:00.151Z,122.92
2019-04-30T04:24:30.393Z,119.35
2019-04-30T04:27:02.227Z,110.60
2019-04-30T04:29:32.397Z,110.55
2019-04-30T04:32:03.959Z,107.47
2019-04-30T04:34:32.881Z,108.35
2019-04-30T04:37:02.864Z,104.58
2019-04-30T04:39:33.705Z,99.20
2019-04-30T04:42:02.321Z,96.55
2019-04-30T04:44:31.337Z,100.33
2019-04-30T04:47:00.315Z,96.95
2019-04-30T04:49:31.729Z,92.88
2019-04-30T04:52:00.683Z,100.53
2019-04-30T04:54:30.126Z,96.60
2019-04-30T04:57:13.974Z,100.95
2019-04-30T04:59:34.732Z,90.10
2019-04-30T05:02:25.521Z,93.95
2019-04-30T05:04:56.893Z,88.10
2019-04-30T05:07:25.949Z,100.00
2019-04-30T05:09:54.672Z,94.20
2019-04-30T05:12:23.278Z,94.72
2019-04-30T05:14:53.533Z,96.60
2019-04-30T05:17:22.128Z,97.55
2019-04-30T05:19:51.392Z,101.30
2019-04-30T05:22:21.650Z,95.60
2019-04-30T05:24:50.221Z,97.90
2019-04-30T05:27:19.796Z,96.28
2019-04-30T05:29:49.875Z,99.75
2019-04-30T05:32:19.746Z,92.35
2019-04-30T05:34:49.681Z,93.97
2019-04-30T05:37:18.792Z,101.97
2019-04-30T05:39:48.919Z,94.95
2019-04-30T05:42:19.833Z,95.72
2019-04-30T05:44:50.785Z,95.38
2019-04-30T05:47:19.754Z,92.40
2019-04-30T05:49:50.647Z,97.97
2019-04-30T05:52:21.164Z,102.30
2019-04-30T05:54:50.070Z,99.47
2019-04-30T05:57:19.720Z,98.03
2019-04-30T05:59:48.888Z,91.30
2019-04-30T06:02:21.052Z,94.40
2019-04-30T06:04:51.012Z,93.78
2019-04-30T06:07:21.986Z,91.15
2019-04-30T06:09:59.763Z,91.57
2019-04-30T06:12:46.257Z,88.70
2019-04-30T06:15:22.140Z,84.97
2019-04-30T06:18:00.726Z,82.12
2019-04-30T06:20:22.692Z,81.53
2019-04-30T06:22:52.174Z,80.22
2019-04-30T06:25:31.859Z,77.82
2019-04-30T06:27:51.813Z,74.15
2019-04-30T06:30:23.858Z,74.70
2019-04-30T06:32:52.906Z,66.45
2019-04-30T06:35:21.745Z,69.92
2019-04-30T06:37:52.535Z,68.42
2019-04-30T06:40:21.268Z,72.67
2019-04-30T06:42:50.180Z,70.25
2019-04-30T06:45:21.316Z,65.28
2019-04-30T06:47:50.505Z,65.50
2019-04-30T06:50:19.498Z,65.60
2019-04-30T06:52:56.374Z,69.03
2019-04-30T06:55:19.401Z,66.00
2019-04-30T06:57:50.375Z,60.95
2019-04-30T07:00:20.838Z,66.42
2019-04-30T07:02:49.771Z,63.95
2019-04-30T07:05:18.685Z,64.32
2019-04-30T07:08:09.299Z,59.67
2019-04-30T07:10:36.666Z,61.88
2019-04-30T07:13:29.675Z,60.83
2019-04-30T07:15:58.710Z,58.50
2019-04-30T07:18:29.635Z,65.15
2019-04-30T07:21:00.273Z,66.80
2019-04-30T07:23:29.210Z,68.30
2019-04-30T07:25:59.610Z,63.00
2019-04-30T07:28:46.547Z,60.58
2019-04-30T07:31:13.868Z,62.50
2019-04-30T07:33:40.890Z,61.28
2019-04-30T07:36:10.008Z,52.70
2019-04-30T07:38:45.546Z,57.08
2019-04-30T07:41:12.164Z,59.05
2019-04-30T07:43:40.747Z,55.73
2019-04-30T07:46:11.502Z,60.20
2019-04-30T07:48:42.096Z,58.42
2019-04-30T07:51:12.886Z,58.92
2019-04-30T07:53:43.632Z,59.53
2019-04-30T07:56:25.721Z,55.48
2019-04-30T07:58:44.399Z,62.65
2019-04-30T08:01:16.043Z,60.90
2019-04-30T08:04:08.881Z,59.33
2019-04-30T08:06:40.003Z,57.10
2019-04-30T08:09:11.280Z,55.43
2019-04-30T08:11:43.907Z,53.68
2019-04-30T08:14:12.562Z,55.28
2019-04-30T08:16:44.717Z,56.42
2019-04-30T08:19:13.472Z,56.30
2019-04-30T08:21:45.964Z,57.98
2019-04-30T08:24:14.524Z,53.87
2019-04-30T08:26:43.670Z,55.43
2019-04-30T08:29:12.580Z,47.98
2019-04-30T08:31:42.774Z,52.65
2019-04-30T08:34:11.380Z,55.15
2019-04-30T08:36:40.801Z,53.68
2019-04-30T08:39:10.699Z,57.25
2019-04-30T08:41:40.816Z,55.17
2019-04-30T08:44:12.778Z,53.13
2019-04-30T08:46:44.839Z,51.75
2019-04-30T08:49:14.040Z,55.90
2019-04-30T08:51:42.970Z,51.90
2019-04-30T08:54:11.534Z,50.88
2019-04-30T08:56:40.258Z,43.78
2019-04-30T08:59:11.408Z,52.17
2019-04-30T09:01:41.841Z,53.13
2019-04-30T09:04:10.582Z,45.08
2019-04-30T09:06:39.729Z,48.45
2019-04-30T09:09:24.166Z,48.38
2019-04-30T09:11:56.036Z,50.33
2019-04-30T09:14:45.538Z,46.70
2019-04-30T09:17:14.449Z,48.50
2019-04-30T09:19:44.479Z,45.52
2019-04-30T09:22:15.235Z,43.20
2019-04-30T09:24:45.556Z,43.50
2019-04-30T09:27:15.562Z,44.98
2019-04-30T09:29:46.266Z,47.80
2019-04-30T09:32:19.109Z,45.10
2019-04-30T09:34:48.963Z,44.77
2019-04-30T09:37:18.763Z,45.88
2019-04-30T09:39:49.266Z,43.85
2019-04-30T09:42:19.663Z,49.15
2019-04-30T09:44:54.242Z,44.67
2019-04-30T09:47:22.204Z,49.10
2019-04-30T09:49:51.529Z,49.70
2019-04-30T09:52:21.870Z,47.95
2019-04-30T09:54:52.719Z,53.17
2019-04-30T09:57:21.500Z,49.53
2019-04-30T09:59:51.750Z,46.02
2019-04-30T10:02:21.909Z,49.15
2019-04-30T10:04:52.703Z,47.17
2019-04-30T10:07:21.776Z,46.83
2019-04-30T10:09:51.051Z,52.17
2019-04-30T10:12:19.738Z,47.55
2019-04-30T10:14:49.649Z,50.48
2019-04-30T10:17:39.058Z,45.52
2019-04-30T10:20:10.744Z,47.98
2019-04-30T10:22:40.840Z,48.10
2019-04-30T10:25:09.685Z,51.58
2019-04-30T10:27:39.628Z,49.90
2019-04-30T10:30:12.465Z,53.63
2019-04-30T10:32:41.034Z,48.83
2019-04-30T10:35:09.587Z,50.58
2019-04-30T10:37:38.891Z,51.85
2019-04-30T10:40:10.364Z,50.00
2019-04-30T10:42:40.596Z,49.75
2019-04-30T10:45:09.984Z,51.13
2019-04-30T10:47:39.803Z,49.03
2019-04-30T10:50:09.877Z,50.20
2019-04-30T10:52:39.310Z,51.37
2019-04-30T10:55:09.367Z,48.68
2019-04-30T10:57:39.616Z,48.40
2019-04-30T11:00:15.646Z,55.75
2019-04-30T11:02:44.227Z,44.55
2019-04-30T11:05:18.783Z,45.12
2019-04-30T11:07:49.728Z,45.65
2019-04-30T11:10:20.445Z,50.45
2019-04-30T11:12:49.025Z,52.00
2019-04-30T11:15:20.636Z,48.75
2019-04-30T11:17:49.614Z,47.95
2019-04-30T11:20:21.736Z,48.23
2019-04-30T11:22:49.468Z,50.08
2019-04-30T11:25:24.571Z,52.23
2019-04-30T11:27:54.278Z,47.25
2019-04-30T11:30:24.415Z,52.43
2019-04-30T11:32:57.400Z,47.43
2019-04-30T11:35:26.139Z,45.87
2019-04-30T11:37:55.088Z,45.28
2019-04-30T11:40:34.465Z,50.25
2019-04-30T11:43:03.607Z,45.48
2019-04-30T11:46:18.698Z,41.25
2019-04-30T11:48:48.988Z,50.73
2019-04-30T11:51:19.395Z,48.70
2019-04-30T11:53:49.063Z,45.20
2019-04-30T11:56:19.184Z,47.62
2019-04-30T11:58:51.908Z,39.10
2019-04-30T12:01:23.016Z,40.98
2019-04-30T12:03:53.160Z,43.75
2019-04-30T12:06:24.063Z,39.92
2019-04-30T12:09:09.147Z,37.55
2019-04-30T12:11:37.889Z,39.95
2019-04-30T12:14:07.926Z,42.17
2019-04-30T12:16:36.682Z,39.25
2019-04-30T12:19:05.349Z,43.30
2019-04-30T12:21:33.888Z,41.13
2019-04-30T12:24:05.928Z,45.67
2019-04-30T12:26:34.838Z,39.42
2019-04-30T12:29:03.803Z,41.60
2019-04-30T12:31:34.084Z,42.35
2019-04-30T12:34:02.662Z,43.50
2019-04-30T12:36:35.006Z,39.35
2019-04-30T12:39:06.315Z,44.00
2019-04-30T12:41:34.910Z,45.92
2019-04-30T12:44:08.118Z,40.73
2019-04-30T12:46:39.060Z,40.60
2019-04-30T12:49:11.460Z,44.93
2019-04-30T12:52:19.653Z,39.65
2019-04-30T12:55:22.495Z,40.65
2019-04-30T12:57:58.838Z,37.50
2019-04-30T13:00:24.607Z,39.05
2019-04-30T13:02:56.715Z,36.98
2019-04-30T13:05:29.634Z,37.60
2019-04-30T13:08:00.162Z,38.95
2019-04-30T13:10:29.246Z,32.53
2019-04-30T13:12:59.913Z,30.68
2019-04-30T13:15:31.087Z,30.12
2019-04-30T13:18:01.293Z,31.82
2019-04-30T13:20:29.854Z,29.25
2019-04-30T13:23:00.856Z,32.38
2019-04-30T13:25:36.819Z,29.27
2019-04-30T13:28:11.978Z,31.80
2019-04-30T13:30:41.356Z,31.42
2019-04-30T13:33:22.555Z,30.08
2019-04-30T13:35:52.985Z,29.72
2019-04-30T13:38:29.163Z,34.75
2019-04-30T13:41:08.878Z,30.95
2019-04-30T13:44:04.408Z,29.00
2019-04-30T13:46:34.393Z,26.15
2019-04-30T13:49:08.050Z,30.48
2019-04-30T13:54:04.654Z,27.22
2019-04-30T13:56:33.536Z,26.48
2019-04-30T13:59:02.454Z,27.55
2019-04-30T14:01:33.693Z,26.62
2019-04-30T14:04:24.520Z,28.07
2019-04-30T14:07:05.131Z,26.68
2019-04-30T14:09:35.726Z,27.10
2019-04-30T14:12:04.291Z,26.27
2019-04-30T14:14:33.232Z,27.85
2019-04-30T14:17:06.365Z,29.98
2019-04-30T14:19:38.492Z,26.62
2019-04-30T14:22:08.949Z,28.80
2019-04-30T14:24:40.909Z,26.55
2019-04-30T14:27:09.973Z,28.73
2019-04-30T14:29:39.573Z,26.97
2019-04-30T14:32:11.239Z,29.50
2019-04-30T14:34:42.878Z,28.12
2019-04-30T14:37:10.775Z,27.52
2019-04-30T14:39:40.391Z,29.12
2019-04-30T14:42:11.072Z,25.92
2019-04-30T14:44:40.643Z,28.42
2019-04-30T14:47:22.401Z,28.87
2019-04-30T14:50:12.467Z,23.62
2019-04-30T14:52:48.303Z,23.77
2019-04-30T14:55:39.656Z,29.12
2019-04-30T14:58:34.250Z,25.23
2019-04-30T15:01:27.131Z,24.05
2019-04-30T15:03:59.321Z,21.97
2019-04-30T15:06:30.627Z,24.72
2019-04-30T15:08:59.213Z,25.05
2019-04-30T15:11:30.170Z,24.20
2019-04-30T15:13:59.212Z,22.85
2019-04-30T15:16:29.165Z,24.10
2019-04-30T15:18:59.430Z,21.42
2019-04-30T15:21:29.671Z,23.52
2019-04-30T15:24:11.972Z,25.50
2019-04-30T15:26:41.827Z,22.20
2019-04-30T15:29:14.407Z,24.43
2019-04-30T15:31:42.633Z,25.25
2019-04-30T15:34:13.983Z,24.02
2019-04-30T15:36:42.719Z,25.52
2019-04-30T15:39:33.093Z,25.57
2019-04-30T15:42:03.997Z,29.90
2019-04-30T15:44:40.143Z,26.87
2019-04-30T15:47:05.249Z,27.70
2019-04-30T15:49:33.880Z,31.37
2019-04-30T15:52:11.067Z,28.90
2019-04-30T15:54:41.329Z,30.08
2019-04-30T15:57:10.254Z,30.40
2019-04-30T15:59:46.984Z,29.63
2019-04-30T16:02:53.209Z,28.70
2019-04-30T16:05:30.813Z,29.10
2019-04-30T16:08:19.048Z,29.48
2019-04-30T16:11:12.775Z,29.95
2019-04-30T16:14:23.726Z,28.57
2019-04-30T16:17:07.062Z,31.15
2019-04-30T16:19:35.637Z,31.70
2019-04-30T16:22:06.131Z,28.80
2019-04-30T16:24:35.126Z,27.73
2019-04-30T16:27:03.748Z,30.52
2019-04-30T16:29:34.631Z,32.58
2019-04-30T16:32:03.233Z,31.17
2019-04-30T16:34:33.354Z,27.70
2019-04-30T16:37:01.944Z,25.77
2019-04-30T16:39:32.874Z,30.50
2019-04-30T16:42:01.806Z,28.62
2019-04-30T16:44:32.593Z,26.73
2019-04-30T16:47:13.061Z,27.60
2019-04-30T16:49:38.697Z,28.57
2019-04-30T16:52:09.154Z,28.85
2019-04-30T16:54:39.568Z,30.25
2019-04-30T16:57:10.308Z,27.15
2019-04-30T16:59:41.909Z,27.25
2019-04-30T17:02:14.563Z,24.85
2019-04-30T17:04:58.074Z,29.42
2019-04-30T17:07:56.420Z,25.32
2019-04-30T17:10:32.131Z,26.57
2019-04-30T17:13:19.573Z,24.60
2019-04-30T17:15:49.344Z,25.37
2019-04-30T17:18:19.098Z,26.00
2019-04-30T17:20:49.095Z,25.92
2019-04-30T17:23:19.299Z,23.57
2019-04-30T17:25:48.114Z,26.42
2019-04-30T17:28:18.664Z,25.55
2019-04-30T17:30:49.016Z,29.82
2019-04-30T17:33:17.336Z,27.58
2019-04-30T17:35:49.856Z,26.97
2019-04-30T17:38:21.292Z,28.75
2019-04-30T17:40:49.986Z,28.95
2019-04-30T17:43:18.549Z,25.52
2019-04-30T17:45:49.195Z,25.17
2019-04-30T17:48:17.631Z,31.35
2019-04-30T17:50:46.763Z,27.25
2019-04-30T17:53:15.342Z,28.47
2019-04-30T17:55:43.944Z,25.57
2019-04-30T17:58:12.934Z,30.17
2019-04-30T18:00:45.592Z,33.05
2019-04-30T18:03:14.436Z,31.17
2019-04-30T18:05:42.992Z,27.10
2019-04-30T18:08:11.566Z,28.73
2019-04-30T18:10:40.891Z,30.32
2019-04-30T18:13:09.793Z,29.18
2019-04-30T18:15:38.364Z,28.65
2019-04-30T18:18:15.629Z,30.35
2019-04-30T18:20:51.541Z,30.20
2019-04-30T18:23:51.244Z,30.72
2019-04-30T18:26:19.809Z,31.45
2019-04-30T18:28:48.690Z,29.77
2019-04-30T18:31:20.688Z,29.80
2019-04-30T18:33:51.475Z,31.40
2019-04-30T18:36:19.591Z,30.35
2019-04-30T18:38:50.310Z,32.53
2019-04-30T18:41:19.412Z,30.62
2019-04-30T18:43:48.754Z,34.92
2019-04-30T18:46:19.149Z,31.65
2019-04-30T18:48:49.419Z,34.38
2019-04-30T18:51:35.878Z,35.30
2019-04-30T18:53:50.934Z,33.47
2019-04-30T18:56:21.840Z,35.65
2019-04-30T18:58:51.038Z,34.20
2019-04-30T19:01:19.941Z,39.50
2019-04-30T19:03:49.260Z,37.75
2019-04-30T19:06:25.903Z,34.73
2019-04-30T19:09:04.082Z,36.35
2019-04-30T19:11:39.497Z,35.55
2019-04-30T19:14:45.543Z,31.85
2019-04-30T19:17:30.874Z,33.13
2019-04-30T19:20:18.787Z,31.87
2019-04-30T19:22:47.838Z,30.97
2019-04-30T19:25:19.131Z,34.10
2019-04-30T19:27:48.283Z,35.13
2019-04-30T19:30:19.120Z,32.90
2019-04-30T19:32:49.162Z,33.18
2019-04-30T19:35:18.761Z,33.70
2019-04-30T19:37:48.700Z,35.55
2019-04-30T19:40:19.022Z,33.38
2019-04-30T19:42:50.777Z,33.83
2019-04-30T19:45:21.485Z,33.55
2019-04-30T19:47:50.068Z,33.33
2019-04-30T19:50:22.067Z,30.68
2019-04-30T19:52:52.675Z,33.48
2019-04-30T19:55:24.672Z,33.75
2019-04-30T19:57:53.266Z,33.83
2019-04-30T20:00:21.923Z,32.55
2019-04-30T20:02:50.664Z,33.95
2019-04-30T20:05:19.535Z,38.53
2019-04-30T20:07:49.341Z,34.13
2019-04-30T20:10:19.550Z,33.45
2019-04-30T20:12:49.920Z,35.60
2019-04-30T20:15:21.727Z,38.55
2019-04-30T20:17:49.905Z,34.80
2019-04-30T20:20:18.946Z,34.50
2019-04-30T20:22:47.626Z,41.33
2019-04-30T20:25:16.369Z,37.67
2019-04-30T20:27:45.473Z,36.83
2019-04-30T20:30:14.438Z,35.98
2019-04-30T20:32:43.051Z,36.08
2019-04-30T20:35:13.274Z,38.10
2019-04-30T20:38:04.154Z,35.52
2019-04-30T20:40:43.275Z,39.30
2019-04-30T20:43:08.455Z,39.33
2019-04-30T20:45:36.651Z,38.20
2019-04-30T20:48:05.241Z,37.10
2019-04-30T20:50:34.001Z,41.40
2019-04-30T20:53:02.583Z,38.90
2019-04-30T20:55:31.329Z,38.20
2019-04-30T20:57:59.915Z,34.55
2019-04-30T21:00:29.011Z,38.02
2019-04-30T21:02:59.739Z,39.83
2019-04-30T21:05:29.943Z,32.67
2019-04-30T21:08:00.074Z,38.58
2019-04-30T21:10:29.687Z,36.60
2019-04-30T21:12:58.401Z,40.00
2019-04-30T21:15:29.727Z,37.17
2019-04-30T21:17:58.774Z,39.03
2019-04-30T21:20:29.865Z,36.00
2019-04-30T21:23:00.011Z,37.73
2019-04-30T21:25:32.055Z,39.63
2019-04-30T21:28:03.177Z,39.63
2019-04-30T21:30:32.482Z,37.25
2019-04-30T21:33:22.378Z,39.27
2019-04-30T21:35:55.499Z,41.28
2019-04-30T21:38:24.134Z,39.55
2019-04-30T21:40:52.678Z,37.78
2019-04-30T21:43:23.479Z,36.38
2019-04-30T21:45:52.048Z,36.00
2019-04-30T21:48:20.620Z,33.73
2019-04-30T21:50:49.771Z,30.60
2019-04-30T21:53:19.591Z,34.33
2019-04-30T21:55:49.694Z,34.92
2019-04-30T21:58:20.459Z,32.50
2019-04-30T22:01:07.358Z,35.90
2019-04-30T22:03:36.095Z,34.90
2019-04-30T22:06:04.674Z,36.28
2019-04-30T22:08:33.439Z,37.28
2019-04-30T22:11:05.190Z,34.15
2019-04-30T22:13:33.753Z,35.83
2019-04-30T22:16:02.418Z,35.88
2019-04-30T22:18:34.249Z,35.48
2019-04-30T22:21:02.837Z,35.70
2019-04-30T22:23:31.585Z,33.58
2019-04-30T22:26:00.180Z,32.70
2019-04-30T22:28:29.030Z,32.85
2019-04-30T22:30:58.591Z,34.08
2019-04-30T22:33:29.205Z,32.05
2019-04-30T22:36:13.158Z,30.45
2019-04-30T22:41:29.821Z,29.80
2019-04-30T22:44:01.480Z,28.73
2019-04-30T22:46:30.133Z,29.90
2019-04-30T22:48:58.709Z,32.78
2019-04-30T22:51:29.292Z,28.25
2019-04-30T22:53:57.853Z,26.55
2019-04-30T22:56:26.615Z,26.20
2019-04-30T22:58:55.194Z,26.15
2019-04-30T23:01:45.083Z,23.55
2019-04-30T23:04:19.479Z,27.65
2019-04-30T23:06:48.453Z,28.62
2019-04-30T23:09:17.794Z,23.30
2019-04-30T23:11:46.808Z,24.72
2019-04-30T23:14:17.364Z,25.08
2019-04-30T23:16:46.306Z,26.73
2019-04-30T23:19:15.096Z,26.27
2019-04-30T23:21:43.837Z,24.77
2019-04-30T23:24:12.386Z,23.40
2019-04-30T23:26:40.948Z,20.43
2019-04-30T23:29:09.511Z,25.00
2019-04-30T23:31:38.081Z,24.72
2019-04-30T23:34:17.420Z,23.12
2019-04-30T23:36:37.396Z,23.32
2019-04-30T23:39:06.027Z,25.12
2019-04-30T23:41:34.605Z,23.35
2019-04-30T23:44:03.152Z,24.40
2019-04-30T23:46:31.739Z,25.40
2019-04-30T23:49:00.601Z,29.12
2019-04-30T23:51:29.202Z,25.55
2019-04-30T23:53:59.120Z,27.32
2019-04-30T23:56:27.704Z,29.63
2019-04-30T23:58:56.280Z,30.65
